Terminal Aerodrome Forecast
Issued by NWS

Home | Current Version | Previous Version | Text Only | Print | Product List | Glossary On
Versions: 1 2 3 4 5 6 7 8 9 10 11 12 13 14 15 16 17 18 19 20 21 22 23
000
FTUS43 KGRR 061700 CCA
TAFMKG
TAF COR
KMKG 061751Z 0618/0718 18016G22KT 3SM -SN OVC015
     FM061900 19007KT P6SM SCT030
     FM070200 23010KT P6SM OVC025=

USA.gov is the U.S. government's official web portal to all federal, state and local government web resources and services.